Canakkale Air Base, Turkey

6:09 PM EEST on August 28, 2014 (GMT +0300)
Canakkale Air Base | Change Station
CLOSE
Current Station
Airport
Location: Canakkale,
Elevation: 10 ft
Nearby Weather Stations

Elev 10 ft 40.14 °N, 26.42 °E | Updated 19 minutes ago

Partly Cloudy
Partly Cloudy
90 °F
Feels Like 95 °F
N
17
Wind Variable Wind from ENE

Today
High -- | Low -- °F
--% Chance of Precip.
Yesterday
High -- | Low -- °F
Precip. -- in
6:37 AM 7:52 PM
Waxing Crescent, 8% visible
Pressure 29.80 in
Visibility 6.2 miles
Clouds Few 3500 ft
Heat Index 95 °F
Dew Point 70 °F
Humidity 52%
Rainfall 0.00 in
Snow Depth Not available.
UV 2 out of 12
Pollen Not available.
Air Quality Not available.
Flu Activity Not available.
METAR LTBH 281450Z 06015KT 9999 FEW035 32/21 Q1009

More Conditions Fewer Conditions

Pressure 29.80 in
Visibility 6.2 miles
Clouds Few 3500 ft
Heat Index 95 °F
Dew Point 70 °F
Humidity 52%
Rainfall 0.00 in
Snow Depth Not available.
UV 2 out of 12
Pollen Not available.
Air Quality Not available.
Flu Activity Not available.
METAR LTBH 281450Z 06015KT 9999 FEW035 32/21 Q1009

More Conditions Fewer Conditions

10-Day Weather Forecast

Almanac

Astronomy

Aug. 28, 2014 Rise Set
Actual Time 6:37 AM EEST 7:52 PM EEST
Civil Twilight 6:09 AM EEST 8:20 PM EEST
Nautical Twilight 5:36 AM EEST 8:54 PM EEST
Astronomical Twilight 5:00 AM EEST 9:29 PM EEST
Moon 9:12 AM EEST 9:06 PM EEST
Length of Visible Light 14h 10m
Length of Day
13h 14m
Tomorrow will be 2m 30s shorter.
Waxing Crescent, 8% of the Moon is Illuminated
Today
Waxing Crescent
Sep 2
First Quarter
Sep 8
Full
Sep 15
Last Quarter
Sep 24
New

Today's Extremes

Country Highs Country Lows

Community

WunderPhotos

Upload Photos

1,747,981 photos uploaded!

Nearby

Snow Depth

Not available.

Earthquake Activity

City Distance Mag. Time & Date
No recent earthquake activity has been reported nearby.
Minimum magnitude displayed is 2.5.

Coastal Water Temperatures

Place Temperature
No Stations Reporting

Nearby Weather Stations